sensor_id;sensor_type;location;lat;lon;timestamp;temperature;humidity
3198;DHT22;1611;49.394;11.136;2023-11-25T00:00:49;3.30;67.50
3198;DHT22;1611;49.394;11.136;2023-11-25T00:03:17;3.20;68.00
3198;DHT22;1611;49.394;11.136;2023-11-25T00:05:44;3.10;68.90
3198;DHT22;1611;49.394;11.136;2023-11-25T00:08:11;3.00;69.60
3198;DHT22;1611;49.394;11.136;2023-11-25T00:10:38;2.90;69.30
3198;DHT22;1611;49.394;11.136;2023-11-25T00:13:05;2.90;69.60
3198;DHT22;1611;49.394;11.136;2023-11-25T00:15:31;2.90;69.00
3198;DHT22;1611;49.394;11.136;2023-11-25T00:17:58;2.80;67.60
3198;DHT22;1611;49.394;11.136;2023-11-25T00:20:26;2.80;66.40
3198;DHT22;1611;49.394;11.136;2023-11-25T00:22:53;2.70;65.00
3198;DHT22;1611;49.394;11.136;2023-11-25T00:25:19;2.70;63.90
3198;DHT22;1611;49.394;11.136;2023-11-25T00:27:49;2.60;64.40
3198;DHT22;1611;49.394;11.136;2023-11-25T00:30:16;2.60;64.80
3198;DHT22;1611;49.394;11.136;2023-11-25T00:32:44;2.60;64.90
3198;DHT22;1611;49.394;11.136;2023-11-25T00:35:11;2.50;64.10
3198;DHT22;1611;49.394;11.136;2023-11-25T00:37:39;2.40;64.10
3198;DHT22;1611;49.394;11.136;2023-11-25T00:40:07;2.50;64.60
3198;DHT22;1611;49.394;11.136;2023-11-25T00:42:35;2.40;64.90
3198;DHT22;1611;49.394;11.136;2023-11-25T00:45:05;2.40;65.30
3198;DHT22;1611;49.394;11.136;2023-11-25T00:47:32;2.40;64.00
3198;DHT22;1611;49.394;11.136;2023-11-25T00:50:00;2.50;64.00
3198;DHT22;1611;49.394;11.136;2023-11-25T00:52:28;2.60;62.40
3198;DHT22;1611;49.394;11.136;2023-11-25T00:54:56;2.60;60.90
3198;DHT22;1611;49.394;11.136;2023-11-25T00:57:23;2.80;62.20
3198;DHT22;1611;49.394;11.136;2023-11-25T00:59:49;2.80;60.00
3198;DHT22;1611;49.394;11.136;2023-11-25T01:02:16;2.80;60.20
3198;DHT22;1611;49.394;11.136;2023-11-25T01:04:43;2.80;60.20
3198;DHT22;1611;49.394;11.136;2023-11-25T01:07:10;2.80;59.90
3198;DHT22;1611;49.394;11.136;2023-11-25T01:09:37;2.90;59.60
3198;DHT22;1611;49.394;11.136;2023-11-25T01:12:06;2.80;59.80
3198;DHT22;1611;49.394;11.136;2023-11-25T01:14:33;2.90;59.00
3198;DHT22;1611;49.394;11.136;2023-11-25T01:17:00;2.90;59.30
3198;DHT22;1611;49.394;11.136;2023-11-25T01:19:26;2.90;59.40
3198;DHT22;1611;49.394;11.136;2023-11-25T01:21:54;3.00;59.00
3198;DHT22;1611;49.394;11.136;2023-11-25T01:24:21;3.00;59.50
3198;DHT22;1611;49.394;11.136;2023-11-25T01:26:48;3.00;58.20
3198;DHT22;1611;49.394;11.136;2023-11-25T01:29:16;3.00;57.20
3198;DHT22;1611;49.394;11.136;2023-11-25T01:31:44;2.90;57.80
3198;DHT22;1611;49.394;11.136;2023-11-25T01:34:10;3.00;57.50
3198;DHT22;1611;49.394;11.136;2023-11-25T01:36:37;3.00;58.10
3198;DHT22;1611;49.394;11.136;2023-11-25T01:39:04;3.00;58.00
3198;DHT22;1611;49.394;11.136;2023-11-25T01:41:31;3.10;59.00
3198;DHT22;1611;49.394;11.136;2023-11-25T01:43:58;3.10;58.10
3198;DHT22;1611;49.394;11.136;2023-11-25T01:46:34;3.10;58.80
3198;DHT22;1611;49.394;11.136;2023-11-25T01:49:03;3.10;59.60
3198;DHT22;1611;49.394;11.136;2023-11-25T01:51:31;3.00;57.40
3198;DHT22;1611;49.394;11.136;2023-11-25T01:53:58;2.90;58.90
3198;DHT22;1611;49.394;11.136;2023-11-25T01:56:26;3.10;59.10
3198;DHT22;1611;49.394;11.136;2023-11-25T01:58:54;3.00;58.00
3198;DHT22;1611;49.394;11.136;2023-11-25T02:01:22;3.10;57.80
3198;DHT22;1611;49.394;11.136;2023-11-25T02:03:51;3.10;57.70
3198;DHT22;1611;49.394;11.136;2023-11-25T02:06:18;3.00;58.60
3198;DHT22;1611;49.394;11.136;2023-11-25T02:08:45;3.00;59.30
3198;DHT22;1611;49.394;11.136;2023-11-25T02:11:12;2.90;59.00
3198;DHT22;1611;49.394;11.136;2023-11-25T02:13:39;2.90;59.10
3198;DHT22;1611;49.394;11.136;2023-11-25T02:16:06;2.90;58.40
3198;DHT22;1611;49.394;11.136;2023-11-25T02:18:36;2.90;59.00
3198;DHT22;1611;49.394;11.136;2023-11-25T02:21:05;2.80;58.40
3198;DHT22;1611;49.394;11.136;2023-11-25T02:23:33;2.80;58.40
3198;DHT22;1611;49.394;11.136;2023-11-25T02:26:00;3.00;58.50
3198;DHT22;1611;49.394;11.136;2023-11-25T02:28:28;2.90;57.50
3198;DHT22;1611;49.394;11.136;2023-11-25T02:30:55;2.80;58.90
3198;DHT22;1611;49.394;11.136;2023-11-25T02:33:22;2.90;59.70
3198;DHT22;1611;49.394;11.136;2023-11-25T02:35:50;2.90;58.50
3198;DHT22;1611;49.394;11.136;2023-11-25T02:38:17;2.90;58.00
3198;DHT22;1611;49.394;11.136;2023-11-25T02:40:47;3.00;58.00
3198;DHT22;1611;49.394;11.136;2023-11-25T02:43:14;3.00;57.50
3198;DHT22;1611;49.394;11.136;2023-11-25T02:45:42;3.00;56.90
3198;DHT22;1611;49.394;11.136;2023-11-25T02:48:09;2.90;57.80
3198;DHT22;1611;49.394;11.136;2023-11-25T02:50:41;3.00;58.40
3198;DHT22;1611;49.394;11.136;2023-11-25T02:53:08;2.90;57.90
3198;DHT22;1611;49.394;11.136;2023-11-25T02:55:35;2.80;58.00
3198;DHT22;1611;49.394;11.136;2023-11-25T02:58:03;2.80;58.50
3198;DHT22;1611;49.394;11.136;2023-11-25T03:00:29;2.90;58.70
3198;DHT22;1611;49.394;11.136;2023-11-25T03:03:02;2.80;58.20
3198;DHT22;1611;49.394;11.136;2023-11-25T03:05:35;2.90;58.10
3198;DHT22;1611;49.394;11.136;2023-11-25T03:08:02;2.90;58.70
3198;DHT22;1611;49.394;11.136;2023-11-25T03:10:29;2.90;58.50
3198;DHT22;1611;49.394;11.136;2023-11-25T03:12:57;3.00;57.90
3198;DHT22;1611;49.394;11.136;2023-11-25T03:15:26;3.00;58.00
3198;DHT22;1611;49.394;11.136;2023-11-25T03:17:53;3.00;57.10
3198;DHT22;1611;49.394;11.136;2023-11-25T03:20:20;2.90;57.80
3198;DHT22;1611;49.394;11.136;2023-11-25T03:22:47;3.00;58.60
3198;DHT22;1611;49.394;11.136;2023-11-25T03:25:14;3.00;57.50
3198;DHT22;1611;49.394;11.136;2023-11-25T03:27:41;3.00;57.00
3198;DHT22;1611;49.394;11.136;2023-11-25T03:30:09;3.00;57.90
3198;DHT22;1611;49.394;11.136;2023-11-25T03:32:38;2.90;58.30
3198;DHT22;1611;49.394;11.136;2023-11-25T03:35:06;2.90;57.60
3198;DHT22;1611;49.394;11.136;2023-11-25T03:37:33;2.90;56.70
3198;DHT22;1611;49.394;11.136;2023-11-25T03:39:59;2.90;57.60
3198;DHT22;1611;49.394;11.136;2023-11-25T03:42:26;2.80;56.80
3198;DHT22;1611;49.394;11.136;2023-11-25T03:44:53;2.80;57.60
3198;DHT22;1611;49.394;11.136;2023-11-25T03:47:20;2.80;58.10
3198;DHT22;1611;49.394;11.136;2023-11-25T03:49:48;2.80;58.60
3198;DHT22;1611;49.394;11.136;2023-11-25T03:52:15;2.60;58.00
3198;DHT22;1611;49.394;11.136;2023-11-25T03:54:42;2.60;57.50
3198;DHT22;1611;49.394;11.136;2023-11-25T03:57:08;2.50;58.50
3198;DHT22;1611;49.394;11.136;2023-11-25T03:59:35;2.50;59.10
3198;DHT22;1611;49.394;11.136;2023-11-25T04:02:02;2.40;59.10
3198;DHT22;1611;49.394;11.136;2023-11-25T04:04:29;2.40;57.80
3198;DHT22;1611;49.394;11.136;2023-11-25T04:06:57;2.30;58.70
3198;DHT22;1611;49.394;11.136;2023-11-25T04:09:24;2.20;58.90
3198;DHT22;1611;49.394;11.136;2023-11-25T04:11:51;2.20;59.80
3198;DHT22;1611;49.394;11.136;2023-11-25T04:14:18;2.10;58.90
3198;DHT22;1611;49.394;11.136;2023-11-25T04:16:45;2.10;59.70
3198;DHT22;1611;49.394;11.136;2023-11-25T04:19:11;2.10;58.70
3198;DHT22;1611;49.394;11.136;2023-11-25T04:21:39;2.10;59.00
3198;DHT22;1611;49.394;11.136;2023-11-25T04:24:12;2.00;58.20
3198;DHT22;1611;49.394;11.136;2023-11-25T04:26:39;2.00;59.20
3198;DHT22;1611;49.394;11.136;2023-11-25T04:29:07;2.00;58.60
3198;DHT22;1611;49.394;11.136;2023-11-25T04:31:34;1.90;59.10
3198;DHT22;1611;49.394;11.136;2023-11-25T04:34:01;1.90;59.60
3198;DHT22;1611;49.394;11.136;2023-11-25T04:36:28;1.90;59.40
3198;DHT22;1611;49.394;11.136;2023-11-25T04:38:55;1.90;58.80
3198;DHT22;1611;49.394;11.136;2023-11-25T04:41:26;2.00;58.70
3198;DHT22;1611;49.394;11.136;2023-11-25T04:43:52;1.80;58.10
3198;DHT22;1611;49.394;11.136;2023-11-25T04:46:20;1.90;58.90
3198;DHT22;1611;49.394;11.136;2023-11-25T04:48:47;1.80;59.40
3198;DHT22;1611;49.394;11.136;2023-11-25T04:51:21;1.80;59.70
3198;DHT22;1611;49.394;11.136;2023-11-25T04:53:48;1.80;58.80
3198;DHT22;1611;49.394;11.136;2023-11-25T04:56:15;1.80;59.50
3198;DHT22;1611;49.394;11.136;2023-11-25T04:58:43;1.80;59.80
3198;DHT22;1611;49.394;11.136;2023-11-25T05:01:10;1.70;59.40
3198;DHT22;1611;49.394;11.136;2023-11-25T05:03:37;1.70;59.70
3198;DHT22;1611;49.394;11.136;2023-11-25T05:06:08;1.80;61.40
3198;DHT22;1611;49.394;11.136;2023-11-25T05:08:35;1.70;60.70
3198;DHT22;1611;49.394;11.136;2023-11-25T05:11:01;1.60;60.50
3198;DHT22;1611;49.394;11.136;2023-11-25T05:13:28;1.60;59.60
3198;DHT22;1611;49.394;11.136;2023-11-25T05:15:56;1.60;60.50
3198;DHT22;1611;49.394;11.136;2023-11-25T05:18:23;1.70;61.00
3198;DHT22;1611;49.394;11.136;2023-11-25T05:20:50;1.60;61.20
3198;DHT22;1611;49.394;11.136;2023-11-25T05:23:17;1.60;61.30
3198;DHT22;1611;49.394;11.136;2023-11-25T05:25:43;1.60;60.90
3198;DHT22;1611;49.394;11.136;2023-11-25T05:28:11;1.60;60.90
3198;DHT22;1611;49.394;11.136;2023-11-25T05:30:37;1.60;61.10
3198;DHT22;1611;49.394;11.136;2023-11-25T05:33:06;1.60;60.30
3198;DHT22;1611;49.394;11.136;2023-11-25T05:35:33;1.60;60.10
3198;DHT22;1611;49.394;11.136;2023-11-25T05:38:00;1.60;60.20
3198;DHT22;1611;49.394;11.136;2023-11-25T05:40:29;1.60;61.10
3198;DHT22;1611;49.394;11.136;2023-11-25T05:42:57;1.50;60.80
3198;DHT22;1611;49.394;11.136;2023-11-25T05:45:26;1.50;60.90
3198;DHT22;1611;49.394;11.136;2023-11-25T05:47:56;1.50;60.70
3198;DHT22;1611;49.394;11.136;2023-11-25T05:50:25;1.50;60.90
3198;DHT22;1611;49.394;11.136;2023-11-25T05:52:52;1.50;61.30
3198;DHT22;1611;49.394;11.136;2023-11-25T05:55:19;1.50;61.50
3198;DHT22;1611;49.394;11.136;2023-11-25T05:57:46;1.50;61.50
3198;DHT22;1611;49.394;11.136;2023-11-25T06:00:16;1.50;61.60
3198;DHT22;1611;49.394;11.136;2023-11-25T06:02:42;1.50;60.90
3198;DHT22;1611;49.394;11.136;2023-11-25T06:05:09;1.50;61.00
3198;DHT22;1611;49.394;11.136;2023-11-25T06:07:38;1.50;61.00
3198;DHT22;1611;49.394;11.136;2023-11-25T06:10:06;1.40;60.40
3198;DHT22;1611;49.394;11.136;2023-11-25T06:12:35;1.30;60.20
3198;DHT22;1611;49.394;11.136;2023-11-25T06:15:03;1.40;61.60
3198;DHT22;1611;49.394;11.136;2023-11-25T06:17:30;1.40;61.10
3198;DHT22;1611;49.394;11.136;2023-11-25T06:19:57;1.40;60.90
3198;DHT22;1611;49.394;11.136;2023-11-25T06:22:24;1.30;61.90
3198;DHT22;1611;49.394;11.136;2023-11-25T06:24:52;1.40;61.10
3198;DHT22;1611;49.394;11.136;2023-11-25T06:27:19;1.30;61.50
3198;DHT22;1611;49.394;11.136;2023-11-25T06:29:47;1.40;61.20
3198;DHT22;1611;49.394;11.136;2023-11-25T06:32:15;1.40;60.60
3198;DHT22;1611;49.394;11.136;2023-11-25T06:34:41;1.30;61.40
3198;DHT22;1611;49.394;11.136;2023-11-25T06:37:08;1.30;60.70
3198;DHT22;1611;49.394;11.136;2023-11-25T06:39:35;1.30;61.40
3198;DHT22;1611;49.394;11.136;2023-11-25T06:42:04;1.40;61.30
3198;DHT22;1611;49.394;11.136;2023-11-25T06:44:33;1.40;61.90
3198;DHT22;1611;49.394;11.136;2023-11-25T06:46:59;1.30;61.40
3198;DHT22;1611;49.394;11.136;2023-11-25T06:49:26;1.40;62.00
3198;DHT22;1611;49.394;11.136;2023-11-25T06:51:53;1.40;61.50
3198;DHT22;1611;49.394;11.136;2023-11-25T06:54:20;1.40;61.20
3198;DHT22;1611;49.394;11.136;2023-11-25T06:56:49;1.40;61.00
3198;DHT22;1611;49.394;11.136;2023-11-25T06:59:18;1.40;61.60
3198;DHT22;1611;49.394;11.136;2023-11-25T07:01:45;1.50;61.70
3198;DHT22;1611;49.394;11.136;2023-11-25T07:04:12;1.40;60.60
3198;DHT22;1611;49.394;11.136;2023-11-25T07:06:39;1.50;61.20
3198;DHT22;1611;49.394;11.136;2023-11-25T07:09:05;1.50;61.50
3198;DHT22;1611;49.394;11.136;2023-11-25T07:11:35;1.50;61.20
3198;DHT22;1611;49.394;11.136;2023-11-25T07:14:03;1.60;60.60
3198;DHT22;1611;49.394;11.136;2023-11-25T07:16:32;1.60;60.50
3198;DHT22;1611;49.394;11.136;2023-11-25T07:18:59;1.60;60.60
3198;DHT22;1611;49.394;11.136;2023-11-25T07:21:26;1.60;59.40
3198;DHT22;1611;49.394;11.136;2023-11-25T07:23:53;1.60;60.40
3198;DHT22;1611;49.394;11.136;2023-11-25T07:26:21;1.60;60.50
3198;DHT22;1611;49.394;11.136;2023-11-25T07:28:48;1.70;59.40
3198;DHT22;1611;49.394;11.136;2023-11-25T07:31:14;1.70;59.30
3198;DHT22;1611;49.394;11.136;2023-11-25T07:33:43;1.80;59.10
3198;DHT22;1611;49.394;11.136;2023-11-25T07:36:09;1.90;59.70
3198;DHT22;1611;49.394;11.136;2023-11-25T07:38:36;2.00;59.00
3198;DHT22;1611;49.394;11.136;2023-11-25T07:41:03;1.90;58.60
3198;DHT22;1611;49.394;11.136;2023-11-25T07:43:31;2.10;58.40
3198;DHT22;1611;49.394;11.136;2023-11-25T07:45:57;2.00;58.00
3198;DHT22;1611;49.394;11.136;2023-11-25T07:48:24;2.10;58.30
3198;DHT22;1611;49.394;11.136;2023-11-25T07:50:53;2.20;58.50
3198;DHT22;1611;49.394;11.136;2023-11-25T07:53:19;2.30;58.30
3198;DHT22;1611;49.394;11.136;2023-11-25T07:55:48;2.40;62.30
3198;DHT22;1611;49.394;11.136;2023-11-25T07:58:16;2.50;61.80
3198;DHT22;1611;49.394;11.136;2023-11-25T08:00:43;2.60;59.00
3198;DHT22;1611;49.394;11.136;2023-11-25T08:03:10;2.60;57.30
3198;DHT22;1611;49.394;11.136;2023-11-25T08:05:38;2.70;56.80
3198;DHT22;1611;49.394;11.136;2023-11-25T08:08:06;2.80;56.90
3198;DHT22;1611;49.394;11.136;2023-11-25T08:10:33;2.80;56.90
3198;DHT22;1611;49.394;11.136;2023-11-25T08:13:00;2.80;56.80
3198;DHT22;1611;49.394;11.136;2023-11-25T08:15:27;2.80;57.60
3198;DHT22;1611;49.394;11.136;2023-11-25T08:17:54;2.90;56.50
3198;DHT22;1611;49.394;11.136;2023-11-25T08:20:21;3.10;56.10
3198;DHT22;1611;49.394;11.136;2023-11-25T08:22:47;3.00;55.80
3198;DHT22;1611;49.394;11.136;2023-11-25T08:25:16;3.10;55.20
3198;DHT22;1611;49.394;11.136;2023-11-25T08:27:44;3.10;55.10
3198;DHT22;1611;49.394;11.136;2023-11-25T08:30:11;3.10;55.80
3198;DHT22;1611;49.394;11.136;2023-11-25T08:32:38;3.00;55.50
3198;DHT22;1611;49.394;11.136;2023-11-25T08:35:06;3.00;55.60
3198;DHT22;1611;49.394;11.136;2023-11-25T08:37:34;3.00;56.00
3198;DHT22;1611;49.394;11.136;2023-11-25T08:40:01;3.10;56.00
3198;DHT22;1611;49.394;11.136;2023-11-25T08:42:30;3.00;56.60
3198;DHT22;1611;49.394;11.136;2023-11-25T08:44:57;3.00;56.30
3198;DHT22;1611;49.394;11.136;2023-11-25T08:47:26;3.00;57.00
3198;DHT22;1611;49.394;11.136;2023-11-25T08:49:53;3.00;56.70
3198;DHT22;1611;49.394;11.136;2023-11-25T08:52:20;2.90;57.90
3198;DHT22;1611;49.394;11.136;2023-11-25T08:54:48;2.90;58.20
3198;DHT22;1611;49.394;11.136;2023-11-25T08:57:15;3.00;57.90
3198;DHT22;1611;49.394;11.136;2023-11-25T08:59:44;3.00;57.60
3198;DHT22;1611;49.394;11.136;2023-11-25T09:02:11;3.10;57.40
3198;DHT22;1611;49.394;11.136;2023-11-25T09:04:38;3.20;57.10
3198;DHT22;1611;49.394;11.136;2023-11-25T09:07:08;3.40;57.10
3198;DHT22;1611;49.394;11.136;2023-11-25T09:09:37;3.80;56.50
3198;DHT22;1611;49.394;11.136;2023-11-25T09:12:05;3.90;54.80
3198;DHT22;1611;49.394;11.136;2023-11-25T09:14:34;3.90;54.40
3198;DHT22;1611;49.394;11.136;2023-11-25T09:17:02;3.70;53.30
3198;DHT22;1611;49.394;11.136;2023-11-25T09:19:29;3.70;54.90
3198;DHT22;1611;49.394;11.136;2023-11-25T09:21:55;3.70;54.00
3198;DHT22;1611;49.394;11.136;2023-11-25T09:24:22;3.90;54.70
3198;DHT22;1611;49.394;11.136;2023-11-25T09:26:49;4.10;53.90
3198;DHT22;1611;49.394;11.136;2023-11-25T09:29:16;4.20;52.50
3198;DHT22;1611;49.394;11.136;2023-11-25T09:31:43;4.30;52.80
3198;DHT22;1611;49.394;11.136;2023-11-25T09:34:11;4.30;53.10
3198;DHT22;1611;49.394;11.136;2023-11-25T09:36:38;4.30;53.40
3198;DHT22;1611;49.394;11.136;2023-11-25T09:39:05;4.10;52.50
3198;DHT22;1611;49.394;11.136;2023-11-25T09:41:35;4.00;52.70
3198;DHT22;1611;49.394;11.136;2023-11-25T09:44:03;4.10;53.00
3198;DHT22;1611;49.394;11.136;2023-11-25T09:46:33;4.10;53.70
3198;DHT22;1611;49.394;11.136;2023-11-25T09:49:00;4.20;53.60
3198;DHT22;1611;49.394;11.136;2023-11-25T09:51:31;4.40;53.00
3198;DHT22;1611;49.394;11.136;2023-11-25T09:54:03;4.50;52.70
3198;DHT22;1611;49.394;11.136;2023-11-25T09:56:34;4.50;52.60
3198;DHT22;1611;49.394;11.136;2023-11-25T09:59:02;4.60;52.30
3198;DHT22;1611;49.394;11.136;2023-11-25T10:01:29;4.80;51.90
3198;DHT22;1611;49.394;11.136;2023-11-25T10:03:58;4.90;51.50
3198;DHT22;1611;49.394;11.136;2023-11-25T10:06:30;4.80;49.00
3198;DHT22;1611;49.394;11.136;2023-11-25T10:08:57;5.00;50.20
3198;DHT22;1611;49.394;11.136;2023-11-25T10:11:23;5.20;47.40
3198;DHT22;1611;49.394;11.136;2023-11-25T10:13:50;5.30;49.50
3198;DHT22;1611;49.394;11.136;2023-11-25T10:16:25;5.50;49.40
3198;DHT22;1611;49.394;11.136;2023-11-25T10:18:53;5.60;46.80
3198;DHT22;1611;49.394;11.136;2023-11-25T10:21:22;5.60;47.10
3198;DHT22;1611;49.394;11.136;2023-11-25T10:23:51;5.60;47.20
3198;DHT22;1611;49.394;11.136;2023-11-25T10:26:20;5.50;47.00
3198;DHT22;1611;49.394;11.136;2023-11-25T10:28:48;5.70;48.10
3198;DHT22;1611;49.394;11.136;2023-11-25T10:31:15;5.90;47.10
3198;DHT22;1611;49.394;11.136;2023-11-25T10:33:44;5.70;45.20
3198;DHT22;1611;49.394;11.136;2023-11-25T10:36:10;5.80;46.70
3198;DHT22;1611;49.394;11.136;2023-11-25T10:38:39;5.90;46.40
3198;DHT22;1611;49.394;11.136;2023-11-25T10:41:11;6.50;45.20
3198;DHT22;1611;49.394;11.136;2023-11-25T10:43:38;6.60;44.30
3198;DHT22;1611;49.394;11.136;2023-11-25T10:46:06;6.40;43.80
3198;DHT22;1611;49.394;11.136;2023-11-25T10:48:33;6.20;44.50
3198;DHT22;1611;49.394;11.136;2023-11-25T10:51:00;6.10;44.00
3198;DHT22;1611;49.394;11.136;2023-11-25T10:53:28;6.30;45.60
3198;DHT22;1611;49.394;11.136;2023-11-25T10:55:56;6.30;45.70
3198;DHT22;1611;49.394;11.136;2023-11-25T10:58:25;6.40;43.20
3198;DHT22;1611;49.394;11.136;2023-11-25T11:00:53;6.40;43.60
3198;DHT22;1611;49.394;11.136;2023-11-25T11:03:21;6.40;43.80
3198;DHT22;1611;49.394;11.136;2023-11-25T11:05:54;6.20;44.80
3198;DHT22;1611;49.394;11.136;2023-11-25T11:08:24;6.40;44.80
3198;DHT22;1611;49.394;11.136;2023-11-25T11:10:54;6.30;45.20
3198;DHT22;1611;49.394;11.136;2023-11-25T11:13:31;6.40;44.60
3198;DHT22;1611;49.394;11.136;2023-11-25T11:15:58;6.40;44.50
3198;DHT22;1611;49.394;11.136;2023-11-25T11:18:30;6.50;44.70
3198;DHT22;1611;49.394;11.136;2023-11-25T11:21:01;6.30;44.40
3198;DHT22;1611;49.394;11.136;2023-11-25T11:23:29;6.20;44.90
3198;DHT22;1611;49.394;11.136;2023-11-25T11:26:04;6.40;44.40
3198;DHT22;1611;49.394;11.136;2023-11-25T11:28:40;6.50;44.20
3198;DHT22;1611;49.394;11.136;2023-11-25T11:34:27;6.50;43.30
3198;DHT22;1611;49.394;11.136;2023-11-25T11:36:55;6.40;44.40
3198;DHT22;1611;49.394;11.136;2023-11-25T11:39:32;6.30;44.00
3198;DHT22;1611;49.394;11.136;2023-11-25T11:42:25;6.10;45.20
3198;DHT22;1611;49.394;11.136;2023-11-25T11:44:57;5.90;45.70
3198;DHT22;1611;49.394;11.136;2023-11-25T11:47:34;5.80;47.30
3198;DHT22;1611;49.394;11.136;2023-11-25T11:50:01;5.80;46.50
3198;DHT22;1611;49.394;11.136;2023-11-25T11:52:33;5.70;47.50
3198;DHT22;1611;49.394;11.136;2023-11-25T11:55:37;5.50;46.90
3198;DHT22;1611;49.394;11.136;2023-11-25T11:58:05;5.50;46.80
3198;DHT22;1611;49.394;11.136;2023-11-25T12:00:46;5.60;48.20
3198;DHT22;1611;49.394;11.136;2023-11-25T12:03:14;5.70;48.10
3198;DHT22;1611;49.394;11.136;2023-11-25T12:05:41;5.80;47.30
3198;DHT22;1611;49.394;11.136;2023-11-25T12:08:07;5.90;47.40
3198;DHT22;1611;49.394;11.136;2023-11-25T12:10:34;5.90;46.30
3198;DHT22;1611;49.394;11.136;2023-11-25T12:13:02;6.00;46.90
3198;DHT22;1611;49.394;11.136;2023-11-25T12:15:30;5.90;46.30
3198;DHT22;1611;49.394;11.136;2023-11-25T12:17:57;5.80;46.90
3198;DHT22;1611;49.394;11.136;2023-11-25T12:20:26;5.90;47.30
3198;DHT22;1611;49.394;11.136;2023-11-25T12:22:54;5.60;48.40
3198;DHT22;1611;49.394;11.136;2023-11-25T12:25:22;5.50;48.90
3198;DHT22;1611;49.394;11.136;2023-11-25T12:27:58;5.40;50.50
3198;DHT22;1611;49.394;11.136;2023-11-25T12:30:32;5.20;51.90
3198;DHT22;1611;49.394;11.136;2023-11-25T12:33:00;5.10;52.80
3198;DHT22;1611;49.394;11.136;2023-11-25T12:35:27;5.10;54.40
3198;DHT22;1611;49.394;11.136;2023-11-25T12:37:54;5.00;55.30
3198;DHT22;1611;49.394;11.136;2023-11-25T12:40:22;4.90;56.60
3198;DHT22;1611;49.394;11.136;2023-11-25T12:42:52;4.90;57.70
3198;DHT22;1611;49.394;11.136;2023-11-25T12:45:31;4.80;57.40
3198;DHT22;1611;49.394;11.136;2023-11-25T12:47:59;4.70;59.10
3198;DHT22;1611;49.394;11.136;2023-11-25T12:50:26;4.60;59.40
3198;DHT22;1611;49.394;11.136;2023-11-25T12:53:02;4.20;60.70
3198;DHT22;1611;49.394;11.136;2023-11-25T12:55:36;4.30;63.00
3198;DHT22;1611;49.394;11.136;2023-11-25T12:58:11;4.40;64.00
3198;DHT22;1611;49.394;11.136;2023-11-25T13:00:45;4.20;62.20
3198;DHT22;1611;49.394;11.136;2023-11-25T13:03:21;4.30;63.30
3198;DHT22;1611;49.394;11.136;2023-11-25T13:05:48;4.30;64.00
3198;DHT22;1611;49.394;11.136;2023-11-25T13:08:19;4.30;63.20
3198;DHT22;1611;49.394;11.136;2023-11-25T13:10:47;4.40;63.90
3198;DHT22;1611;49.394;11.136;2023-11-25T13:13:14;4.40;62.80
3198;DHT22;1611;49.394;11.136;2023-11-25T13:15:41;4.50;62.40
3198;DHT22;1611;49.394;11.136;2023-11-25T13:18:09;4.60;62.90
3198;DHT22;1611;49.394;11.136;2023-11-25T13:20:39;4.50;62.50
3198;DHT22;1611;49.394;11.136;2023-11-25T13:23:06;4.40;63.20
3198;DHT22;1611;49.394;11.136;2023-11-25T13:25:33;4.30;62.80
3198;DHT22;1611;49.394;11.136;2023-11-25T13:28:00;4.30;62.90
3198;DHT22;1611;49.394;11.136;2023-11-25T13:30:26;4.40;62.80
3198;DHT22;1611;49.394;11.136;2023-11-25T13:32:53;4.30;61.70
3198;DHT22;1611;49.394;11.136;2023-11-25T13:35:21;4.30;62.50
3198;DHT22;1611;49.394;11.136;2023-11-25T13:37:48;4.60;72.80
3198;DHT22;1611;49.394;11.136;2023-11-25T13:40:16;4.70;69.70
3198;DHT22;1611;49.394;11.136;2023-11-25T13:42:45;4.90;72.00
3198;DHT22;1611;49.394;11.136;2023-11-25T13:45:12;4.90;63.00
3198;DHT22;1611;49.394;11.136;2023-11-25T13:47:39;4.70;60.90
3198;DHT22;1611;49.394;11.136;2023-11-25T13:50:07;4.70;60.60
3198;DHT22;1611;49.394;11.136;2023-11-25T13:52:37;4.60;60.60
3198;DHT22;1611;49.394;11.136;2023-11-25T13:55:05;4.60;60.50
3198;DHT22;1611;49.394;11.136;2023-11-25T13:57:32;4.50;60.90
3198;DHT22;1611;49.394;11.136;2023-11-25T13:59:59;4.30;59.60
3198;DHT22;1611;49.394;11.136;2023-11-25T14:02:25;4.30;61.20
3198;DHT22;1611;49.394;11.136;2023-11-25T14:04:55;4.30;61.50
3198;DHT22;1611;49.394;11.136;2023-11-25T14:07:22;4.30;61.40
3198;DHT22;1611;49.394;11.136;2023-11-25T14:09:51;4.30;60.90
3198;DHT22;1611;49.394;11.136;2023-11-25T14:12:18;4.40;61.50
3198;DHT22;1611;49.394;11.136;2023-11-25T14:14:44;4.40;60.60
3198;DHT22;1611;49.394;11.136;2023-11-25T14:17:11;4.40;61.70
3198;DHT22;1611;49.394;11.136;2023-11-25T14:19:42;4.40;59.20
3198;DHT22;1611;49.394;11.136;2023-11-25T14:22:10;4.40;59.40
3198;DHT22;1611;49.394;11.136;2023-11-25T14:24:37;4.40;59.50
3198;DHT22;1611;49.394;11.136;2023-11-25T14:27:05;4.40;59.30
3198;DHT22;1611;49.394;11.136;2023-11-25T14:29:32;4.30;59.80
3198;DHT22;1611;49.394;11.136;2023-11-25T14:31:59;4.30;60.50
3198;DHT22;1611;49.394;11.136;2023-11-25T14:34:25;4.30;60.50
3198;DHT22;1611;49.394;11.136;2023-11-25T14:36:52;4.20;61.60
3198;DHT22;1611;49.394;11.136;2023-11-25T14:39:19;4.20;63.40
3198;DHT22;1611;49.394;11.136;2023-11-25T14:41:58;4.20;63.40
3198;DHT22;1611;49.394;11.136;2023-11-25T14:44:26;4.20;63.70
3198;DHT22;1611;49.394;11.136;2023-11-25T14:46:53;4.20;64.20
3198;DHT22;1611;49.394;11.136;2023-11-25T14:49:21;4.20;64.50
3198;DHT22;1611;49.394;11.136;2023-11-25T14:51:47;4.10;64.20
3198;DHT22;1611;49.394;11.136;2023-11-25T14:54:14;4.00;64.80
3198;DHT22;1611;49.394;11.136;2023-11-25T14:56:41;4.20;64.80
3198;DHT22;1611;49.394;11.136;2023-11-25T14:59:09;4.10;64.80
3198;DHT22;1611;49.394;11.136;2023-11-25T15:01:37;4.20;64.80
3198;DHT22;1611;49.394;11.136;2023-11-25T15:04:04;4.20;64.70
3198;DHT22;1611;49.394;11.136;2023-11-25T15:06:31;4.10;65.00
3198;DHT22;1611;49.394;11.136;2023-11-25T15:08:58;4.20;64.80
3198;DHT22;1611;49.394;11.136;2023-11-25T15:11:25;4.10;64.00
3198;DHT22;1611;49.394;11.136;2023-11-25T15:13:52;4.20;64.50
3198;DHT22;1611;49.394;11.136;2023-11-25T15:16:18;4.10;62.90
3198;DHT22;1611;49.394;11.136;2023-11-25T15:18:46;4.10;64.20
3198;DHT22;1611;49.394;11.136;2023-11-25T15:21:17;4.20;64.00
3198;DHT22;1611;49.394;11.136;2023-11-25T15:23:44;4.10;63.90
3198;DHT22;1611;49.394;11.136;2023-11-25T15:26:11;4.20;63.80
3198;DHT22;1611;49.394;11.136;2023-11-25T15:28:38;4.20;64.00
3198;DHT22;1611;49.394;11.136;2023-11-25T15:31:09;4.20;63.30
3198;DHT22;1611;49.394;11.136;2023-11-25T15:33:36;4.20;63.00
3198;DHT22;1611;49.394;11.136;2023-11-25T15:36:05;4.30;62.60
3198;DHT22;1611;49.394;11.136;2023-11-25T15:38:32;4.30;63.80
3198;DHT22;1611;49.394;11.136;2023-11-25T15:41:00;4.30;63.70
3198;DHT22;1611;49.394;11.136;2023-11-25T15:43:28;4.30;64.00
3198;DHT22;1611;49.394;11.136;2023-11-25T15:45:55;4.30;64.20
3198;DHT22;1611;49.394;11.136;2023-11-25T15:48:22;4.30;63.90
3198;DHT22;1611;49.394;11.136;2023-11-25T15:50:49;4.30;64.10
3198;DHT22;1611;49.394;11.136;2023-11-25T15:53:17;4.20;64.40
3198;DHT22;1611;49.394;11.136;2023-11-25T15:55:44;4.30;65.00
3198;DHT22;1611;49.394;11.136;2023-11-25T15:58:11;4.20;65.30
3198;DHT22;1611;49.394;11.136;2023-11-25T16:00:38;4.10;65.40
3198;DHT22;1611;49.394;11.136;2023-11-25T16:03:05;4.10;66.10
3198;DHT22;1611;49.394;11.136;2023-11-25T16:05:32;4.20;66.70
3198;DHT22;1611;49.394;11.136;2023-11-25T16:07:59;4.10;66.40
3198;DHT22;1611;49.394;11.136;2023-11-25T16:10:27;3.90;66.80